Kairouan, Tunisia
Current Conditions -  °F | °C
As of 10:00 PM on Thursday 23 Oct 2014 (Local Time) from DTTK Reporting Station
Few Clouds Few Clouds  
Wind Chill: 70°   Ceiling: Unl
Heat Index: 70°   Visibility: 6mi
Dew Point: 52°   Wind: 5mph
Humidity: 53%   Direction: 300°WNW
Pressure: 29.91"   Gusts: NA
Location:  35.68°N, 10.1°E
Report Text: DTTK 232100Z 30004KT 9999 FEW023 21/11 Q1013
Loading
Personal Weather Stations






























Interactive Weather Map
Tropical Storm Tracking
New forecast layout! Learn more

10-Day Weather Forecast

Advertisements
Track Severe Weather on mobile